Time;durP1;ratioP1;P1;durP2;ratioP2;P2;SDS_P1;SDS_P2;PMS_P1;PMS_P2;Temp;Humidity;BMP_temperature;BMP_pressure;BME280_temperature;BME280_humidity;BME280_pressure;Samples;Min_cycle;Max_cycle;Signal;HPM_P1;HPM_P2
2022/02/06 00:02:15;;;;;;;45.55;31.70;;;;;;;;;;143731;576;46010;-83
2022/02/06 00:04:43;;;;;;;43.78;30.60;;;;;;;;;;143735;633;46020;-84
2022/02/06 00:07:10;;;;;;;38.00;29.83;;;;;;;;;;143736;571;46010;-83
2022/02/06 00:09:45;;;;;;;52.00;36.47;;;;;;;;;;143732;566;46014;-84
2022/02/06 00:12:13;;;;;;;82.25;59.38;;;;;;;;;;143731;630;46917;-82
2022/02/06 00:14:40;;;;;;;95.80;63.95;;;;;;;;;;143734;575;46023;-82
2022/02/06 00:17:08;;;;;;;96.78;65.80;;;;;;;;;;143737;584;46012;-83
2022/02/06 00:19:35;;;;;;;98.37;68.55;;;;;;;;;;143732;577;46022;-83
2022/02/06 00:22:04;;;;;;;93.05;65.32;;;;;;;;;;143733;603;46011;-83
2022/02/06 00:27:33;;;;;;;98.43;68.37;;;;;;;;;;143735;586;46018;-83
2022/02/06 00:30:15;;;;;;;93.28;67.60;;;;;;;;;;143731;569;47022;-83
2022/02/06 00:32:47;;;;;;;95.15;65.25;;;;;;;;;;143732;564;46020;-83
2022/02/06 00:35:32;;;;;;;91.47;64.40;;;;;;;;;;143733;577;46020;-84
2022/02/06 00:38:11;;;;;;;83.30;59.83;;;;;;;;;;143735;600;46010;-82
2022/02/06 00:43:34;;;;;;;80.25;60.53;;;;;;;;;;143733;582;46020;-82
2022/02/06 00:46:04;;;;;;;71.72;51.45;;;;;;;;;;143735;607;46021;-83
2022/02/06 00:48:34;;;;;;;66.43;46.13;;;;;;;;;;143735;626;46020;-84
2022/02/06 00:51:13;;;;;;;58.80;39.25;;;;;;;;;;143734;571;46022;-83
2022/02/06 00:53:41;;;;;;;50.25;38.17;;;;;;;;;;143733;583;46010;-83
2022/02/06 00:56:09;;;;;;;58.85;38.13;;;;;;;;;;143734;584;46020;-82
2022/02/06 00:58:36;;;;;;;52.58;36.40;;;;;;;;;;143735;587;46011;-83
2022/02/06 01:01:06;;;;;;;58.92;38.38;;;;;;;;;;143732;570;46045;-82
2022/02/06 01:03:32;;;;;;;45.80;34.90;;;;;;;;;;143732;569;46010;-84
2022/02/06 01:06:00;;;;;;;48.60;35.40;;;;;;;;;;143735;583;46021;-83
2022/02/06 01:08:26;;;;;;;49.97;32.80;;;;;;;;;;143737;608;46018;-83
2022/02/06 01:10:53;;;;;;;47.35;31.48;;;;;;;;;;143732;593;47020;-84
2022/02/06 01:13:29;;;;;;;44.25;31.37;;;;;;;;;;143731;671;46010;-83
2022/02/06 01:16:02;;;;;;;40.28;27.62;;;;;;;;;;143732;579;46021;-83
2022/02/06 01:18:43;;;;;;;26.62;20.85;;;;;;;;;;143735;566;46010;-83
2022/02/06 01:21:31;;;;;;;28.87;19.27;;;;;;;;;;143731;581;46022;-83
2022/02/06 01:24:10;;;;;;;30.92;19.48;;;;;;;;;;143731;624;46020;-83
2022/02/06 01:26:53;;;;;;;24.58;15.20;;;;;;;;;;143733;578;46020;-84
2022/02/06 01:32:21;;;;;;;21.02;13.62;;;;;;;;;;143732;602;46023;-83
2022/02/06 01:35:00;;;;;;;22.40;14.80;;;;;;;;;;143731;579;46012;-83
2022/02/06 01:37:46;;;;;;;24.20;14.60;;;;;;;;;;143733;596;46021;-83
2022/02/06 01:40:29;;;;;;;24.87;16.23;;;;;;;;;;143734;576;46010;-83
2022/02/06 01:43:01;;;;;;;28.73;18.70;;;;;;;;;;143731;565;47022;-84
2022/02/06 01:46:17;;;;;;;23.52;16.08;;;;;;;;;;143731;675;47010;-84
2022/02/06 02:00:37;;;;;;;35.72;25.75;;;;;;;;;;143733;672;46020;-83
2022/02/06 02:03:31;;;;;;;43.05;28.83;;;;;;;;;;143735;621;46020;-83
2022/02/06 02:06:34;;;;;;;43.00;30.17;;;;;;;;;;143729;581;47022;-84
2022/02/06 02:12:39;;;;;;;45.83;32.80;;;;;;;;;;143730;563;46020;-82
2022/02/06 02:16:06;;;;;;;40.67;27.77;;;;;;;;;;143733;572;46011;-83
2022/02/06 02:24:11;;;;;;;36.40;25.65;;;;;;;;;;143735;571;47023;-83
2022/02/06 02:44:02;;;;;;;37.67;25.75;;;;;;;;;;143732;600;46021;-83
2022/02/06 02:46:32;;;;;;;36.45;24.45;;;;;;;;;;143730;583;48020;-83
2022/02/06 02:49:00;;;;;;;33.43;22.20;;;;;;;;;;143736;657;46012;-82
2022/02/06 02:51:32;;;;;;;39.00;26.83;;;;;;;;;;143733;626;46021;-83
2022/02/06 02:54:05;;;;;;;37.10;26.52;;;;;;;;;;143732;678;46012;-82
2022/02/06 02:56:49;;;;;;;28.70;21.17;;;;;;;;;;143734;602;46020;-82
2022/02/06 02:59:28;;;;;;;29.30;21.23;;;;;;;;;;143734;704;46013;-83
2022/02/06 03:02:04;;;;;;;29.33;19.30;;;;;;;;;;143732;580;46052;-84
2022/02/06 03:04:32;;;;;;;22.83;16.08;;;;;;;;;;143732;681;46012;-83
2022/02/06 03:06:59;;;;;;;21.30;15.25;;;;;;;;;;143733;642;46021;-83
2022/02/06 03:09:30;;;;;;;29.15;14.35;;;;;;;;;;143736;592;46020;-82
2022/02/06 03:11:57;;;;;;;15.63;12.23;;;;;;;;;;143730;570;47022;-84
2022/02/06 03:14:38;;;;;;;18.40;13.60;;;;;;;;;;143732;592;46012;-83
2022/02/06 03:17:05;;;;;;;20.23;13.48;;;;;;;;;;143734;586;46020;-83
2022/02/06 03:19:41;;;;;;;17.83;12.68;;;;;;;;;;143733;585;46012;-82
2022/02/06 03:22:08;;;;;;;21.08;14.27;;;;;;;;;;143732;739;46023;-82
2022/02/06 03:24:43;;;;;;;21.58;13.90;;;;;;;;;;143733;626;46012;-82
2022/02/06 03:27:15;;;;;;;22.95;14.40;;;;;;;;;;143733;749;46020;-82
2022/02/06 03:29:44;;;;;;;23.87;15.32;;;;;;;;;;143735;642;46012;-83
2022/02/06 03:32:10;;;;;;;23.45;17.12;;;;;;;;;;143731;615;47022;-83
2022/02/06 03:34:37;;;;;;;21.30;15.55;;;;;;;;;;143731;599;46012;-82
2022/02/06 03:37:04;;;;;;;26.30;16.55;;;;;;;;;;143737;579;46020;-83
2022/02/06 03:39:35;;;;;;;19.30;14.65;;;;;;;;;;143733;594;46012;-83
2022/02/06 03:42:08;;;;;;;21.65;16.20;;;;;;;;;;143733;572;46022;-83
2022/02/06 03:44:43;;;;;;;30.57;20.03;;;;;;;;;;143734;575;46013;-82
2022/02/06 03:47:18;;;;;;;45.92;28.90;;;;;;;;;;143734;603;46032;-82
2022/02/06 03:50:00;;;;;;;46.47;28.67;;;;;;;;;;143736;572;46012;-83
2022/02/06 03:52:36;;;;;;;39.00;26.35;;;;;;;;;;143732;726;47021;-82
2022/02/06 03:55:03;;;;;;;39.38;25.05;;;;;;;;;;143731;582;46917;-82
2022/02/06 03:57:30;;;;;;;39.10;29.17;;;;;;;;;;143735;564;46015;-82
2022/02/06 03:59:57;;;;;;;35.78;25.62;;;;;;;;;;143737;651;46018;-82
2022/02/06 04:02:26;;;;;;;42.67;27.33;;;;;;;;;;143733;594;46022;-82
2022/02/06 04:04:57;;;;;;;42.47;28.48;;;;;;;;;;143734;583;46012;-82
2022/02/06 04:07:23;;;;;;;39.38;29.70;;;;;;;;;;143733;599;47020;-82
2022/02/06 04:09:53;;;;;;;48.35;31.10;;;;;;;;;;143735;575;46012;-81
2022/02/06 04:12:22;;;;;;;41.30;29.27;;;;;;;;;;143735;591;46022;-81
2022/02/06 04:15:12;;;;;;;46.00;31.37;;;;;;;;;;143734;635;46012;-81
2022/02/06 04:17:55;;;;;;;44.10;30.90;;;;;;;;;;143734;581;46020;-82
2022/02/06 04:20:22;;;;;;;45.72;30.25;;;;;;;;;;143734;768;46013;-82
2022/02/06 04:22:51;;;;;;;41.78;28.25;;;;;;;;;;143732;588;47023;-83
2022/02/06 04:25:19;;;;;;;44.20;33.75;;;;;;;;;;143731;596;46012;-83
2022/02/06 04:27:45;;;;;;;44.67;31.58;;;;;;;;;;143736;575;46021;-81
2022/02/06 04:30:12;;;;;;;37.05;30.95;;;;;;;;;;143737;684;46018;-83
2022/02/06 04:32:39;;;;;;;38.65;29.30;;;;;;;;;;143735;591;46022;-81
2022/02/06 04:35:09;;;;;;;41.20;28.58;;;;;;;;;;143733;604;46013;-83
2022/02/06 04:37:52;;;;;;;40.17;29.45;;;;;;;;;;143734;589;46020;-85
2022/02/06 04:40:57;;;;;;;37.17;26.58;;;;;;;;;;143736;623;46012;-82
2022/02/06 05:12:06;;;;;;;38.00;29.20;;;;;;;;;;143736;563;46020;-83
2022/02/06 05:14:37;;;;;;;39.33;29.52;;;;;;;;;;143735;594;47021;-83
2022/02/06 05:20:28;;;;;;;36.22;27.30;;;;;;;;;;143733;757;46915;-82
2022/02/06 05:28:39;;;;;;;43.20;26.52;;;;;;;;;;143733;691;47023;-82
2022/02/06 05:31:13;;;;;;;38.88;27.48;;;;;;;;;;143732;694;46010;-83
2022/02/06 05:33:39;;;;;;;36.03;25.45;;;;;;;;;;143736;579;46020;-83
2022/02/06 05:36:10;;;;;;;39.47;28.73;;;;;;;;;;143737;570;46010;-83
2022/02/06 05:38:38;;;;;;;37.80;27.13;;;;;;;;;;143737;583;46022;-82
2022/02/06 05:41:08;;;;;;;38.40;25.35;;;;;;;;;;143735;572;46010;-82
2022/02/06 05:43:36;;;;;;;34.38;24.95;;;;;;;;;;143734;611;46021;-83
2022/02/06 05:46:04;;;;;;;35.20;26.35;;;;;;;;;;143737;574;46010;-84
2022/02/06 05:48:31;;;;;;;31.95;25.92;;;;;;;;;;143733;585;46911;-83
2022/02/06 05:50:58;;;;;;;42.10;29.50;;;;;;;;;;143731;600;46917;-83
2022/02/06 05:53:28;;;;;;;35.75;27.45;;;;;;;;;;143735;765;46020;-84
2022/02/06 05:55:56;;;;;;;37.10;27.17;;;;;;;;;;143737;575;46010;-82
2022/02/06 05:58:23;;;;;;;37.67;28.20;;;;;;;;;;143733;585;46022;-83
2022/02/06 06:00:50;;;;;;;37.33;26.98;;;;;;;;;;143733;579;46010;-82
2022/02/06 06:03:16;;;;;;;28.92;23.55;;;;;;;;;;143736;563;46040;-83
2022/02/06 06:05:43;;;;;;;34.95;27.00;;;;;;;;;;143734;634;46018;-83
2022/02/06 06:08:10;;;;;;;36.40;25.55;;;;;;;;;;143734;600;46022;-83
2022/02/06 06:10:38;;;;;;;130.07;81.12;;;;;;;;;;143734;575;46020;-84
2022/02/06 06:13:04;;;;;;;123.87;76.65;;;;;;;;;;143733;650;49012;-83
2022/02/06 06:15:31;;;;;;;107.43;71.30;;;;;;;;;;143735;587;46012;-83
2022/02/06 06:18:03;;;;;;;92.40;64.22;;;;;;;;;;143735;588;46020;-83
2022/02/06 06:20:31;;;;;;;84.55;59.40;;;;;;;;;;143729;602;47012;-84
2022/02/06 06:22:57;;;;;;;56.35;43.85;;;;;;;;;;143735;583;46020;-83
2022/02/06 06:25:27;;;;;;;52.67;38.28;;;;;;;;;;143738;594;46010;-81
2022/02/06 06:27:55;;;;;;;49.95;36.13;;;;;;;;;;143735;566;46023;-83
2022/02/06 06:30:22;;;;;;;48.03;34.70;;;;;;;;;;143737;586;46010;-82
2022/02/06 06:32:49;;;;;;;44.08;36.47;;;;;;;;;;143733;599;46020;-83
2022/02/06 06:35:16;;;;;;;39.58;32.33;;;;;;;;;;143736;671;46010;-83
2022/02/06 06:37:43;;;;;;;44.80;34.88;;;;;;;;;;143733;648;46023;-84
2022/02/06 06:40:10;;;;;;;53.65;38.70;;;;;;;;;;143733;587;46917;-82
2022/02/06 06:42:39;;;;;;;43.38;34.88;;;;;;;;;;143735;570;46021;-83
2022/02/06 06:45:06;;;;;;;43.47;35.20;;;;;;;;;;143741;610;45020;-85
2022/02/06 06:47:34;;;;;;;47.67;34.17;;;;;;;;;;143736;570;46012;-84
2022/02/06 06:50:03;;;;;;;42.03;32.53;;;;;;;;;;143735;591;46010;-82
2022/02/06 06:52:30;;;;;;;49.35;35.17;;;;;;;;;;143739;570;46012;-84
2022/02/06 06:55:01;;;;;;;42.42;32.75;;;;;;;;;;143736;577;46010;-83
2022/02/06 06:57:42;;;;;;;57.45;34.42;;;;;;;;;;143734;581;46022;-83
2022/02/06 07:00:22;;;;;;;51.42;37.03;;;;;;;;;;143736;599;46020;-82
2022/02/06 07:02:50;;;;;;;50.30;38.28;;;;;;;;;;143736;604;46020;-82
2022/02/06 07:05:17;;;;;;;40.05;31.35;;;;;;;;;;143736;565;46010;-82
2022/02/06 07:07:44;;;;;;;40.53;32.17;;;;;;;;;;143735;616;46022;-83
2022/02/06 07:10:16;;;;;;;37.40;28.00;;;;;;;;;;143733;658;46010;-82
2022/02/06 07:12:43;;;;;;;42.55;29.27;;;;;;;;;;143736;639;46021;-82
2022/02/06 07:15:10;;;;;;;41.00;29.73;;;;;;;;;;143739;585;46022;-81
2022/02/06 07:17:37;;;;;;;38.95;30.40;;;;;;;;;;143734;731;46022;-81
2022/02/06 07:20:04;;;;;;;41.28;29.92;;;;;;;;;;143731;691;46013;-82
2022/02/06 07:22:35;;;;;;;44.78;31.85;;;;;;;;;;143734;584;46020;-82
2022/02/06 07:25:04;;;;;;;43.70;33.30;;;;;;;;;;143737;584;46010;-82
2022/02/06 07:27:36;;;;;;;42.50;33.35;;;;;;;;;;143736;584;46023;-82
2022/02/06 07:30:05;;;;;;;32.78;25.35;;;;;;;;;;143734;599;46010;-82
2022/02/06 07:32:37;;;;;;;49.65;33.00;;;;;;;;;;143735;620;46020;-84
2022/02/06 07:35:08;;;;;;;40.42;31.45;;;;;;;;;;143737;586;46018;-82
2022/02/06 07:37:36;;;;;;;45.05;33.13;;;;;;;;;;143737;757;46014;-83
2022/02/06 07:40:05;;;;;;;41.17;32.10;;;;;;;;;;143734;582;46020;-81
2022/02/06 07:42:32;;;;;;;44.53;34.40;;;;;;;;;;143737;581;46021;-82
2022/02/06 07:45:01;;;;;;;48.95;35.83;;;;;;;;;;143735;577;46020;-81
2022/02/06 07:47:27;;;;;;;45.50;35.28;;;;;;;;;;143734;698;46022;-82
2022/02/06 07:49:57;;;;;;;45.45;36.60;;;;;;;;;;143733;564;46012;-82
2022/02/06 07:52:27;;;;;;;46.65;37.05;;;;;;;;;;143735;564;46020;-83
2022/02/06 07:55:04;;;;;;;42.92;33.30;;;;;;;;;;143736;604;46011;-82
2022/02/06 07:57:31;;;;;;;42.65;31.98;;;;;;;;;;143733;602;47023;-82
2022/02/06 07:59:58;;;;;;;44.60;34.42;;;;;;;;;;143737;647;46020;-82
2022/02/06 08:02:25;;;;;;;39.53;32.20;;;;;;;;;;143736;566;46012;-82
2022/02/06 08:04:52;;;;;;;45.80;31.95;;;;;;;;;;143737;590;46010;-83
2022/02/06 08:07:19;;;;;;;42.25;32.65;;;;;;;;;;143734;696;46022;-81
2022/02/06 08:09:59;;;;;;;40.78;30.60;;;;;;;;;;143733;592;46010;-82
2022/02/06 08:12:29;;;;;;;41.47;33.22;;;;;;;;;;143733;591;47020;-82
2022/02/06 08:14:59;;;;;;;43.25;30.10;;;;;;;;;;143737;566;47018;-82
2022/02/06 08:17:38;;;;;;;49.40;32.33;;;;;;;;;;143733;654;47022;-82
2022/02/06 08:20:11;;;;;;;45.28;32.35;;;;;;;;;;143733;585;46917;-81
2022/02/06 08:22:37;;;;;;;38.45;30.05;;;;;;;;;;143735;570;46020;-80
2022/02/06 08:25:08;;;;;;;44.00;28.65;;;;;;;;;;143737;565;48020;-80
2022/02/06 08:27:35;;;;;;;38.25;29.33;;;;;;;;;;143733;582;46023;-81
2022/02/06 08:30:04;;;;;;;38.38;30.05;;;;;;;;;;143734;627;46917;-81
2022/02/06 08:32:32;;;;;;;42.62;29.90;;;;;;;;;;143736;566;46020;-82
2022/02/06 08:35:00;;;;;;;35.53;27.95;;;;;;;;;;143737;612;46010;-81
2022/02/06 08:37:29;;;;;;;32.75;26.52;;;;;;;;;;143733;587;47022;-81
2022/02/06 08:39:57;;;;;;;34.58;27.45;;;;;;;;;;143733;595;46010;-81
2022/02/06 08:42:24;;;;;;;35.30;28.75;;;;;;;;;;143736;585;46021;-83
2022/02/06 08:44:51;;;;;;;35.55;27.70;;;;;;;;;;143735;582;47020;-82
2022/02/06 08:47:20;;;;;;;31.83;25.65;;;;;;;;;;143730;594;48022;-81
2022/02/06 08:49:51;;;;;;;39.47;25.80;;;;;;;;;;143734;607;46010;-82
2022/02/06 08:52:18;;;;;;;34.50;22.83;;;;;;;;;;143736;651;46020;-82
2022/02/06 08:54:49;;;;;;;32.72;23.40;;;;;;;;;;143736;566;46011;-82
2022/02/06 08:57:24;;;;;;;27.17;21.98;;;;;;;;;;143732;573;47021;-83
2022/02/06 08:59:52;;;;;;;24.63;19.23;;;;;;;;;;143735;579;46010;-85
2022/02/06 09:02:19;;;;;;;26.08;20.08;;;;;;;;;;143734;605;46020;-82
2022/02/06 09:04:49;;;;;;;24.33;18.45;;;;;;;;;;143737;653;46010;-82
2022/02/06 09:07:17;;;;;;;22.08;17.58;;;;;;;;;;143733;591;47022;-82
2022/02/06 09:09:49;;;;;;;24.73;17.60;;;;;;;;;;143734;603;46012;-84
2022/02/06 09:12:20;;;;;;;20.40;14.25;;;;;;;;;;143735;662;46021;-84
2022/02/06 09:14:48;;;;;;;15.63;12.77;;;;;;;;;;143738;577;46020;-83
2022/02/06 09:17:15;;;;;;;17.17;13.32;;;;;;;;;;143735;648;46022;-84
2022/02/06 09:19:43;;;;;;;21.90;16.02;;;;;;;;;;143736;570;46021;-82
2022/02/06 09:22:10;;;;;;;24.95;16.75;;;;;;;;;;143736;605;46020;-84
2022/02/06 09:24:40;;;;;;;29.63;18.55;;;;;;;;;;143736;593;46020;-82
2022/02/06 09:27:08;;;;;;;28.10;18.85;;;;;;;;;;143733;720;47023;-84
2022/02/06 09:29:37;;;;;;;27.15;18.25;;;;;;;;;;143734;571;46010;-82
2022/02/06 09:37:13;;;;;;;18.98;12.73;;;;;;;;;;143739;579;45020;-81
2022/02/06 09:39:41;;;;;;;19.70;11.27;;;;;;;;;;143734;595;46010;-81
2022/02/06 09:42:09;;;;;;;16.30;10.52;;;;;;;;;;143738;584;46021;-81
2022/02/06 09:44:37;;;;;;;13.52;10.20;;;;;;;;;;143737;571;46020;-81
2022/02/06 09:47:05;;;;;;;18.77;10.95;;;;;;;;;;143735;667;46022;-82
2022/02/06 09:49:33;;;;;;;15.23;10.88;;;;;;;;;;143735;579;45918;-81
2022/02/06 09:51:59;;;;;;;17.58;11.63;;;;;;;;;;143735;592;46020;-82
2022/02/06 09:54:28;;;;;;;15.43;12.18;;;;;;;;;;143735;595;46020;-82
2022/02/06 09:56:59;;;;;;;17.50;12.07;;;;;;;;;;143734;648;46023;-83
2022/02/06 09:59:28;;;;;;;15.77;13.32;;;;;;;;;;143729;577;46917;-83
2022/02/06 10:01:58;;;;;;;15.52;11.98;;;;;;;;;;143737;565;46020;-81
2022/02/06 10:04:31;;;;;;;21.48;12.82;;;;;;;;;;143732;669;47021;-81
2022/02/06 10:07:07;;;;;;;20.50;12.35;;;;;;;;;;143733;619;46012;-81
2022/02/06 10:09:55;;;;;;;16.65;12.32;;;;;;;;;;143732;574;46010;-81
2022/02/06 10:12:25;;;;;;;20.55;13.73;;;;;;;;;;143735;718;46021;-82
2022/02/06 10:14:52;;;;;;;14.35;11.95;;;;;;;;;;143734;575;46010;-81
2022/02/06 10:17:24;;;;;;;22.25;11.73;;;;;;;;;;143733;676;46022;-81
2022/02/06 10:19:59;;;;;;;21.85;12.93;;;;;;;;;;143731;641;46020;-82
2022/02/06 10:22:39;;;;;;;14.27;12.77;;;;;;;;;;143733;582;46020;-84
2022/02/06 10:25:09;;;;;;;20.10;14.90;;;;;;;;;;143734;622;46019;-81
2022/02/06 10:28:01;;;;;;;19.70;14.65;;;;;;;;;;143734;569;47023;-81
2022/02/06 10:30:51;;;;;;;19.45;14.23;;;;;;;;;;143734;585;46010;-82
2022/02/06 10:33:23;;;;;;;16.77;13.38;;;;;;;;;;143735;629;46012;-81
2022/02/06 10:35:54;;;;;;;20.42;16.87;;;;;;;;;;143736;636;46020;-80
2022/02/06 10:38:26;;;;;;;18.70;15.07;;;;;;;;;;143734;697;46022;-81
2022/02/06 10:41:12;;;;;;;19.17;14.98;;;;;;;;;;143733;645;46021;-80
2022/02/06 10:43:56;;;;;;;22.37;15.18;;;;;;;;;;143733;569;46020;-81
2022/02/06 10:46:27;;;;;;;23.33;15.52;;;;;;;;;;143735;570;46010;-83
2022/02/06 10:48:56;;;;;;;19.00;14.15;;;;;;;;;;143735;577;46013;-82
2022/02/06 10:51:49;;;;;;;20.85;15.68;;;;;;;;;;143731;612;46917;-82
2022/02/06 10:54:44;;;;;;;25.33;16.65;;;;;;;;;;143735;570;46020;-80
2022/02/06 10:57:14;;;;;;;20.60;16.30;;;;;;;;;;143736;581;46018;-80
2022/02/06 10:59:52;;;;;;;20.10;16.25;;;;;;;;;;143732;600;46022;-79
2022/02/06 11:02:48;;;;;;;22.10;16.40;;;;;;;;;;143733;602;46010;-81
2022/02/06 11:05:30;;;;;;;18.58;15.60;;;;;;;;;;143734;736;46045;-80
2022/02/06 11:08:00;;;;;;;18.77;15.48;;;;;;;;;;143734;581;46010;-81
2022/02/06 11:10:34;;;;;;;18.80;14.52;;;;;;;;;;143731;590;47022;-81
2022/02/06 11:13:03;;;;;;;;;;;;;;;;;;143735;981;46012;-80
2022/02/06 11:15:37;;;;;;;19.27;12.30;;;;;;;;;;143743;578;46020;-80
2022/02/06 11:18:14;;;;;;;15.68;12.15;;;;;;;;;;143735;569;46012;-81
2022/02/06 11:21:07;;;;;;;16.42;13.65;;;;;;;;;;143734;585;46022;-80
2022/02/06 11:23:59;;;;;;;20.40;14.97;;;;;;;;;;143732;592;46915;-80
2022/02/06 11:26:35;;;;;;;21.67;13.68;;;;;;;;;;143735;702;46020;-84
2022/02/06 11:29:02;;;;;;;22.15;16.12;;;;;;;;;;143732;574;47020;-82
2022/02/06 11:31:29;;;;;;;23.80;14.87;;;;;;;;;;143732;570;47022;-81
2022/02/06 11:33:56;;;;;;;20.85;15.02;;;;;;;;;;143734;617;46020;-81
2022/02/06 11:43:41;;;;;;;20.67;13.93;;;;;;;;;;143730;581;47018;-81
2022/02/06 11:45:26;;;;;;;16.17;11.90;;;;;;;;;;143732;610;47020;-82
2022/02/06 11:47:59;;;;;;;18.45;13.07;;;;;;;;;;143734;580;46021;-83
2022/02/06 11:50:30;;;;;;;14.68;10.48;;;;;;;;;;143736;564;46018;-81
2022/02/06 11:52:59;;;;;;;18.98;9.95;;;;;;;;;;143732;580;47022;-82
2022/02/06 11:55:43;;;;;;;11.05;7.57;;;;;;;;;;143730;597;46021;-82
2022/02/06 11:58:41;;;;;;;;;;;;;;;;;;143739;982;46020;-82
2022/02/06 12:01:31;;;;;;;8.57;6.40;;;;;;;;;;143749;585;46018;-81
2022/02/06 12:04:07;;;;;;;14.32;9.75;;;;;;;;;;143735;569;46033;-81
2022/02/06 12:07:01;;;;;;;13.60;9.93;;;;;;;;;;143735;731;46020;-82
2022/02/06 12:09:31;;;;;;;14.18;10.52;;;;;;;;;;143737;621;46013;-81
2022/02/06 12:12:11;;;;;;;12.82;9.30;;;;;;;;;;143734;617;46010;-81
2022/02/06 12:14:50;;;;;;;13.20;9.82;;;;;;;;;;143731;595;47022;-80
2022/02/06 12:17:55;;;;;;;13.18;9.32;;;;;;;;;;143731;565;46011;-81
2022/02/06 12:20:22;;;;;;;10.98;8.23;;;;;;;;;;143736;583;46012;-81
2022/02/06 12:22:51;;;;;;;14.13;10.55;;;;;;;;;;143734;569;46010;-82
2022/02/06 12:25:37;;;;;;;11.65;8.68;;;;;;;;;;143732;639;46910;-81
2022/02/06 12:28:40;;;;;;;15.20;10.85;;;;;;;;;;143731;564;46010;-82
2022/02/06 12:31:27;;;;;;;12.40;9.87;;;;;;;;;;143733;576;46020;-81
2022/02/06 12:34:10;;;;;;;14.80;7.72;;;;;;;;;;143730;670;47010;-82
2022/02/06 12:39:32;;;;;;;16.42;7.62;;;;;;;;;;143732;606;46012;-81
2022/02/06 12:41:59;;;;;;;12.00;7.90;;;;;;;;;;143733;579;46020;-81
2022/02/06 12:44:27;;;;;;;14.20;7.90;;;;;;;;;;143737;578;46010;-80
2022/02/06 12:47:04;;;;;;;10.10;7.25;;;;;;;;;;143733;567;46022;-81
2022/02/06 12:49:34;;;;;;;12.30;8.88;;;;;;;;;;143733;584;46010;-81
2022/02/06 12:52:03;;;;;;;13.65;7.62;;;;;;;;;;143734;591;46049;-81
2022/02/06 12:54:31;;;;;;;11.45;8.43;;;;;;;;;;143734;593;46010;-81
2022/02/06 12:57:00;;;;;;;13.82;9.65;;;;;;;;;;143731;589;47020;-80
2022/02/06 12:59:29;;;;;;;15.80;8.23;;;;;;;;;;143733;590;46020;-81
2022/02/06 13:01:57;;;;;;;13.62;9.73;;;;;;;;;;143733;609;46021;-81
2022/02/06 13:04:28;;;;;;;10.30;7.85;;;;;;;;;;143735;622;46010;-82
2022/02/06 13:07:02;;;;;;;10.43;8.10;;;;;;;;;;143732;564;47022;-81
2022/02/06 13:09:41;;;;;;;12.10;9.20;;;;;;;;;;143733;697;46011;-84
2022/02/06 13:12:29;;;;;;;12.93;11.05;;;;;;;;;;143734;618;46020;-81
2022/02/06 13:15:38;;;;;;;14.68;10.50;;;;;;;;;;143735;604;46010;-82
2022/02/06 13:18:18;;;;;;;16.50;10.43;;;;;;;;;;143734;759;46025;-82
2022/02/06 13:21:06;;;;;;;17.08;11.45;;;;;;;;;;143732;851;46010;-81
2022/02/06 13:24:24;;;;;;;18.95;14.35;;;;;;;;;;143733;910;46021;-81
2022/02/06 13:30:22;;;;;;;9.60;7.18;;;;;;;;;;143734;569;46012;-81
2022/02/06 13:33:16;;;;;;;12.18;7.95;;;;;;;;;;143729;581;47020;-81
2022/02/06 13:35:55;;;;;;;12.60;7.50;;;;;;;;;;143734;592;46020;-83
2022/02/06 13:38:22;;;;;;;12.63;8.50;;;;;;;;;;143735;724;46010;-80
2022/02/06 13:40:51;;;;;;;15.45;8.27;;;;;;;;;;143733;603;46042;-82
2022/02/06 13:43:25;;;;;;;11.25;7.80;;;;;;;;;;143732;574;46010;-83
2022/02/06 13:45:57;;;;;;;8.52;6.40;;;;;;;;;;143733;593;46021;-82
2022/02/06 13:48:26;;;;;;;11.38;7.78;;;;;;;;;;143733;797;46010;-82
2022/02/06 13:50:58;;;;;;;17.73;9.13;;;;;;;;;;143731;702;47022;-81
2022/02/06 13:53:25;;;;;;;12.20;9.55;;;;;;;;;;143733;646;46010;-82
2022/02/06 13:56:01;;;;;;;13.75;9.18;;;;;;;;;;143734;585;46047;-81
2022/02/06 13:58:29;;;;;;;11.70;8.18;;;;;;;;;;143735;606;46020;-82
2022/02/06 14:01:06;;;;;;;11.35;7.80;;;;;;;;;;143730;685;47022;-82
2022/02/06 14:03:56;;;;;;;11.45;8.63;;;;;;;;;;143732;582;46010;-82
2022/02/06 14:06:42;;;;;;;11.65;8.25;;;;;;;;;;143734;607;46020;-82
2022/02/06 14:09:18;;;;;;;15.95;9.52;;;;;;;;;;143736;565;46010;-82
2022/02/06 14:12:01;;;;;;;13.65;8.98;;;;;;;;;;143732;620;47022;-82
2022/02/06 14:14:29;;;;;;;15.52;9.02;;;;;;;;;;143733;583;46010;-82
2022/02/06 14:16:57;;;;;;;12.25;8.93;;;;;;;;;;143731;576;46012;-81
2022/02/06 14:19:43;;;;;;;17.52;8.80;;;;;;;;;;143734;569;46010;-82
2022/02/06 14:22:13;;;;;;;12.98;8.90;;;;;;;;;;143732;628;46053;-82
2022/02/06 14:24:54;;;;;;;11.77;7.93;;;;;;;;;;143732;578;46010;-82
2022/02/06 14:27:45;;;;;;;11.60;8.05;;;;;;;;;;143735;688;46020;-82
2022/02/06 14:30:27;;;;;;;9.82;7.10;;;;;;;;;;143733;566;46011;-81
2022/02/06 14:33:09;;;;;;;9.60;6.62;;;;;;;;;;143733;618;46023;-83
2022/02/06 14:35:53;;;;;;;12.95;8.07;;;;;;;;;;143736;575;46917;-82
2022/02/06 14:38:37;;;;;;;14.98;9.10;;;;;;;;;;143734;569;46021;-82
2022/02/06 14:41:25;;;;;;;13.95;9.43;;;;;;;;;;143739;581;45032;-81
2022/02/06 14:44:12;;;;;;;12.10;8.70;;;;;;;;;;143734;629;46022;-83
2022/02/06 14:46:39;;;;;;;17.27;10.15;;;;;;;;;;143734;564;46010;-82
2022/02/06 14:49:09;;;;;;;11.27;8.85;;;;;;;;;;143733;601;46020;-81
2022/02/06 14:51:37;;;;;;;16.15;10.07;;;;;;;;;;143734;606;46010;-82
2022/02/06 14:54:06;;;;;;;16.58;10.40;;;;;;;;;;143731;566;47022;-81
2022/02/06 14:56:34;;;;;;;23.23;11.80;;;;;;;;;;143733;577;46010;-82
2022/02/06 14:59:01;;;;;;;20.33;12.00;;;;;;;;;;143734;600;46020;-82
2022/02/06 15:01:28;;;;;;;15.57;10.65;;;;;;;;;;143733;614;46018;-81
2022/02/06 15:03:55;;;;;;;20.17;13.57;;;;;;;;;;143732;566;46022;-81
2022/02/06 15:06:22;;;;;;;18.90;12.50;;;;;;;;;;143731;588;46020;-82
2022/02/06 15:08:50;;;;;;;16.12;13.15;;;;;;;;;;143731;590;46013;-83
2022/02/06 15:11:17;;;;;;;23.60;13.13;;;;;;;;;;143733;613;46010;-82
2022/02/06 15:13:43;;;;;;;16.50;12.73;;;;;;;;;;143731;622;47022;-83
2022/02/06 15:16:15;;;;;;;21.55;13.70;;;;;;;;;;143732;583;46918;-82
2022/02/06 15:18:52;;;;;;;23.77;15.00;;;;;;;;;;143730;566;48012;-83
2022/02/06 15:21:20;;;;;;;19.15;14.77;;;;;;;;;;143733;609;46012;-81
2022/02/06 15:23:46;;;;;;;20.12;14.98;;;;;;;;;;143733;571;46022;-81
2022/02/06 15:26:14;;;;;;;17.48;14.32;;;;;;;;;;143732;626;46012;-82
2022/02/06 15:28:40;;;;;;;19.45;13.07;;;;;;;;;;143733;569;46020;-82
2022/02/06 15:31:07;;;;;;;18.37;11.23;;;;;;;;;;143735;564;46021;-82
2022/02/06 15:33:35;;;;;;;21.50;12.63;;;;;;;;;;143732;618;46023;-81
2022/02/06 15:36:04;;;;;;;14.00;10.43;;;;;;;;;;143731;601;46010;-82
2022/02/06 15:38:32;;;;;;;16.42;12.18;;;;;;;;;;143735;569;46012;-82
2022/02/06 15:41:00;;;;;;;19.92;11.93;;;;;;;;;;143734;591;46010;-82
2022/02/06 15:43:28;;;;;;;17.50;13.20;;;;;;;;;;143732;579;47022;-83
2022/02/06 15:45:55;;;;;;;15.25;12.30;;;;;;;;;;143732;569;46010;-84
2022/02/06 15:48:22;;;;;;;26.00;16.95;;;;;;;;;;143734;569;46020;-83
2022/02/06 15:50:49;;;;;;;25.05;16.27;;;;;;;;;;143733;755;47018;-83
2022/02/06 15:53:17;;;;;;;23.95;16.48;;;;;;;;;;143733;620;46022;-83
2022/02/06 15:55:44;;;;;;;25.17;15.73;;;;;;;;;;143733;632;46010;-83
2022/02/06 15:58:10;;;;;;;24.12;15.80;;;;;;;;;;143733;612;46020;-82
2022/02/06 16:00:37;;;;;;;24.27;16.05;;;;;;;;;;143735;574;46020;-83
2022/02/06 16:03:04;;;;;;;21.20;16.90;;;;;;;;;;143732;589;47023;-82
2022/02/06 16:05:31;;;;;;;27.80;18.90;;;;;;;;;;143732;571;46010;-85
2022/02/06 16:07:58;;;;;;;20.88;17.27;;;;;;;;;;143734;621;46021;-82
2022/02/06 16:10:24;;;;;;;24.95;16.55;;;;;;;;;;143735;614;46010;-82
2022/02/06 16:12:51;;;;;;;24.10;17.60;;;;;;;;;;143731;564;47022;-82
2022/02/06 16:15:18;;;;;;;24.90;17.12;;;;;;;;;;143734;564;46010;-83
2022/02/06 16:17:45;;;;;;;26.83;18.12;;;;;;;;;;143734;642;46021;-83
2022/02/06 16:20:14;;;;;;;39.95;32.03;;;;;;;;;;143736;615;46010;-82
2022/02/06 16:22:44;;;;;;;42.85;33.35;;;;;;;;;;143732;565;47021;-82
2022/02/06 16:25:11;;;;;;;39.10;30.83;;;;;;;;;;143735;585;46020;-82
2022/02/06 16:27:38;;;;;;;45.03;34.05;;;;;;;;;;143732;575;47020;-82
2022/02/06 16:30:06;;;;;;;38.42;28.15;;;;;;;;;;143734;583;47020;-83
2022/02/06 16:32:34;;;;;;;32.13;24.27;;;;;;;;;;143737;585;46023;-83
2022/02/06 16:35:01;;;;;;;33.22;24.90;;;;;;;;;;143735;579;46049;-82